Messwerte Koror

Temperatur

Temperatur
°C
1603404000 7.00 7.00 24
1603407600 8.00 8.00 24
1603411200 9.00 9.00 26
1603414800 10.00 10.00 28
1603418400 11.00 11.00 27
1603422000 12.00 12.00 27
1603425600 13.00 13.00 28
1603429200 14.00 14.00 29
1603432800 15.00 15.00 29
1603436400 16.00 16.00 29
1603440000 17.00 17.00 28
1603443600 18.00 18.00 27
1603447200 19.00 19.00
1603450800 20.00 20.00 27
1603454400 21.00 21.00 27
1603458000 22.00 22.00 25
1603461600 23.00 23.00 25
1603465200 0.00 0.00 26
1603468800 1.00 1.00 25
1603472400 2.00 2.00 26
1603476000 3.00 3.00 26
1603479600 4.00 4.00 25
1603483200 5.00 5.00 25
1603486800 6.00 6.00

Wir danken unserem Partner:

Aktuellste Messwerte

Wettercharakter
Wetter: wechselnd bewölkt
Temperatur
25 °C
Feuchtigkeit
94 %
Wind
0 km/h, -
Luftdruck
1010 hPa
Messzeit: 24. Oktober 2020, 7.00Datenquelle: METAR

Weitere Messstationen in der Nähe

Messstation Temperatur Entfernung
Yap 27 °C 462 km

Wind

Windrichtung Böen Mittelwind
° km/h km/h
1603404000 7.00 6.00 - 7.00 310° 30 15
1603407600 8.00 7.00 - 8.00 300° 20
1603411200 9.00 8.00 - 9.00 290° 30 15
1603414800 10.00 9.00 - 10.00 290° 30 10
1603418400 11.00 10.00 - 11.00 280° 25 20
1603422000 12.00 11.00 - 12.00 260° 20
1603425600 13.00 12.00 - 13.00 280° 30 20
1603429200 14.00 13.00 - 14.00 250° 20
1603432800 15.00 14.00 - 15.00 260° 20
1603436400 16.00 15.00 - 16.00 270° 20
1603440000 17.00 16.00 - 17.00 280° 10
1603443600 18.00 17.00 - 18.00 230° 5
1603447200 19.00 18.00 - 19.00
1603450800 20.00 19.00 - 20.00 240° 10
1603454400 21.00 20.00 - 21.00 270° 5
1603458000 22.00 21.00 - 22.00 0
1603461600 23.00 22.00 - 23.00 0
1603465200 0.00 23.00 - 0.00 0
1603468800 1.00 0.00 - 1.00 0
1603472400 2.00 1.00 - 2.00 0
1603476000 3.00 2.00 - 3.00 0
1603479600 4.00 3.00 - 4.00 0
1603483200 5.00 4.00 - 5.00 280° 5
1603486800 6.00 5.00 - 6.00

Ihre Wetterstation

Fehlt Ihre Wetterstation auf unserem Portal?

Schreiben Sie an network@meteonews.ch

Klima

Wann ist es am wärmsten? Wann regnet es am wenigsten? Unsere Klimadaten geben Auskunft.